createdAt,value
2019-05-10T00:00:51.000Z,12.70
2019-05-10T00:03:38.996Z,12.65
2019-05-10T00:06:26.666Z,12.63
2019-05-10T00:08:56.019Z,12.65
2019-05-10T00:11:30.441Z,12.50
2019-05-10T00:14:06.900Z,12.49
2019-05-10T00:16:36.574Z,12.49
2019-05-10T00:19:06.654Z,12.41
2019-05-10T00:21:36.628Z,12.39
2019-05-10T00:24:06.633Z,12.44
2019-05-10T00:26:36.763Z,12.42
2019-05-10T00:29:06.844Z,12.42
2019-05-10T00:31:36.883Z,12.46
2019-05-10T00:34:06.950Z,12.51
2019-05-10T00:36:36.924Z,12.55
2019-05-10T00:39:07.822Z,12.48
2019-05-10T00:41:37.869Z,12.49
2019-05-10T00:44:07.873Z,12.49
2019-05-10T00:46:37.959Z,12.50
2019-05-10T00:49:07.927Z,12.46
2019-05-10T00:51:37.865Z,12.52
2019-05-10T00:54:07.850Z,12.54
2019-05-10T00:56:37.855Z,12.54
2019-05-10T00:59:07.840Z,12.49
2019-05-10T01:01:37.847Z,12.46
2019-05-10T01:04:07.898Z,12.51
2019-05-10T01:06:37.936Z,12.46
2019-05-10T01:09:07.906Z,12.42
2019-05-10T01:11:37.917Z,12.32
2019-05-10T01:14:08.028Z,12.39
2019-05-10T01:16:38.170Z,12.37
2019-05-10T01:19:08.157Z,12.29
2019-05-10T01:21:38.164Z,12.27
2019-05-10T01:24:08.144Z,12.26
2019-05-10T01:26:38.135Z,12.23
2019-05-10T01:29:08.186Z,12.22
2019-05-10T01:31:38.187Z,12.21
2019-05-10T01:34:08.142Z,12.19
2019-05-10T01:36:38.119Z,12.16
2019-05-10T01:39:08.135Z,12.15
2019-05-10T01:41:38.120Z,12.05
2019-05-10T01:44:08.116Z,12.02
2019-05-10T01:46:38.124Z,11.99
2019-05-10T01:49:08.102Z,11.96
2019-05-10T01:51:38.104Z,11.88
2019-05-10T01:54:08.078Z,11.84
2019-05-10T01:56:38.018Z,11.80
2019-05-10T01:59:07.983Z,11.80
2019-05-10T02:01:37.998Z,11.76
2019-05-10T02:04:08.461Z,11.71
2019-05-10T02:06:38.615Z,11.65
2019-05-10T02:09:09.386Z,11.64
2019-05-10T02:11:39.468Z,11.59
2019-05-10T02:14:09.439Z,11.56
2019-05-10T02:16:39.506Z,11.53
2019-05-10T02:19:09.517Z,11.49
2019-05-10T02:21:39.493Z,11.46
2019-05-10T02:24:09.509Z,11.42
2019-05-10T02:26:39.412Z,11.41
2019-05-10T02:29:09.411Z,11.38
2019-05-10T02:31:39.382Z,11.34
2019-05-10T02:34:09.394Z,11.31
2019-05-10T02:36:39.370Z,11.27
2019-05-10T02:39:10.050Z,11.26
2019-05-10T02:41:40.054Z,11.21
2019-05-10T02:44:10.026Z,11.20
2019-05-10T02:46:40.035Z,11.17
2019-05-10T02:49:10.013Z,11.12
2019-05-10T02:51:40.011Z,11.11
2019-05-10T02:54:09.979Z,11.05
2019-05-10T02:56:41.289Z,11.01
2019-05-10T02:59:13.867Z,10.98
2019-05-10T03:01:46.019Z,10.95
2019-05-10T03:04:15.977Z,10.91
2019-05-10T03:06:45.990Z,10.89
2019-05-10T03:09:15.959Z,10.87
2019-05-10T03:11:48.730Z,10.80
2019-05-10T03:14:20.614Z,10.75
2019-05-10T03:16:52.034Z,10.74
2019-05-10T03:19:23.100Z,10.71
2019-05-10T03:21:58.968Z,10.69
2019-05-10T03:24:29.121Z,10.64
2019-05-10T03:26:59.190Z,10.58
2019-05-10T03:29:29.163Z,10.55
2019-05-10T03:31:59.238Z,10.48
2019-05-10T03:34:29.285Z,10.41
2019-05-10T03:36:59.328Z,10.38
2019-05-10T03:39:29.307Z,10.36
2019-05-10T03:41:59.604Z,10.35
2019-05-10T03:44:29.525Z,10.32
2019-05-10T03:46:59.542Z,10.29
2019-05-10T03:49:29.509Z,10.21
2019-05-10T03:51:59.597Z,10.19
2019-05-10T03:54:29.500Z,10.15
2019-05-10T03:57:12.403Z,10.10
2019-05-10T03:59:31.203Z,10.06
2019-05-10T04:02:01.233Z,9.99
2019-05-10T04:04:31.206Z,9.97
2019-05-10T04:07:01.206Z,9.95
2019-05-10T04:09:31.244Z,9.91
2019-05-10T04:12:01.181Z,9.89
2019-05-10T04:14:31.293Z,9.89
2019-05-10T04:17:01.228Z,9.88
2019-05-10T04:19:31.140Z,9.92
2019-05-10T04:22:01.148Z,9.94
2019-05-10T04:24:35.520Z,10.00
2019-05-10T04:27:02.833Z,10.08
2019-05-10T04:29:32.885Z,10.16
2019-05-10T04:32:02.793Z,10.25
2019-05-10T04:34:32.696Z,10.31
2019-05-10T04:37:02.625Z,10.43
2019-05-10T04:39:32.638Z,10.50
2019-05-10T04:42:02.545Z,10.58
2019-05-10T04:44:33.724Z,10.61
2019-05-10T04:47:03.688Z,10.71
2019-05-10T04:49:33.694Z,10.82
2019-05-10T04:52:03.667Z,10.94
2019-05-10T04:54:33.673Z,11.06
2019-05-10T04:57:03.643Z,11.16
2019-05-10T04:59:33.688Z,11.24
2019-05-10T05:02:03.637Z,11.37
2019-05-10T05:04:33.739Z,11.46
2019-05-10T05:07:03.713Z,11.57
2019-05-10T05:09:33.719Z,11.71
2019-05-10T05:12:03.681Z,11.88
2019-05-10T05:14:33.766Z,11.95
2019-05-10T05:17:03.735Z,12.11
2019-05-10T05:19:33.573Z,12.20
2019-05-10T05:22:03.598Z,12.39
2019-05-10T05:24:33.579Z,12.53
2019-05-10T05:27:03.568Z,12.47
2019-05-10T05:29:33.557Z,12.63
2019-05-10T05:32:03.875Z,12.70
2019-05-10T05:34:34.151Z,12.77
2019-05-10T05:37:04.752Z,12.84
2019-05-10T05:39:34.679Z,12.91
2019-05-10T05:42:06.424Z,12.94
2019-05-10T05:44:36.500Z,12.99
2019-05-10T05:47:06.578Z,13.00
2019-05-10T05:49:36.551Z,13.08
2019-05-10T05:52:06.558Z,13.07
2019-05-10T05:54:36.554Z,13.04
2019-05-10T05:57:06.562Z,13.08
2019-05-10T05:59:38.403Z,13.16
2019-05-10T06:02:09.614Z,13.14
2019-05-10T06:04:40.868Z,13.00
2019-05-10T06:07:11.405Z,12.86
2019-05-10T06:09:41.365Z,13.02
2019-05-10T06:12:12.682Z,13.10
2019-05-10T06:14:49.916Z,13.11
2019-05-10T06:17:15.486Z,13.17
2019-05-10T06:19:45.382Z,13.21
2019-05-10T06:22:15.410Z,13.27
2019-05-10T06:24:46.617Z,13.24
2019-05-10T06:27:17.305Z,13.22
2019-05-10T06:29:47.291Z,13.14
2019-05-10T06:32:17.332Z,13.11
2019-05-10T06:34:47.330Z,13.03
2019-05-10T06:37:17.302Z,13.09
2019-05-10T06:39:47.307Z,13.02
2019-05-10T06:42:17.276Z,13.10
2019-05-10T06:44:47.290Z,13.08
2019-05-10T06:47:17.268Z,13.15
2019-05-10T06:49:52.076Z,13.15
2019-05-10T06:52:21.850Z,13.12
2019-05-10T06:54:50.693Z,13.14
2019-05-10T06:57:20.587Z,13.17
2019-05-10T06:59:50.572Z,13.30
2019-05-10T07:02:26.183Z,13.32
2019-05-10T07:04:52.187Z,13.45
2019-05-10T07:07:42.746Z,13.35
2019-05-10T07:10:12.192Z,13.38
2019-05-10T07:12:30.002Z,13.37
2019-05-10T07:15:03.584Z,13.37
2019-05-10T07:17:29.861Z,13.30
2019-05-10T07:19:59.764Z,13.33
2019-05-10T07:22:29.776Z,13.19
2019-05-10T07:25:04.303Z,13.13
2019-05-10T07:27:36.541Z,13.18
2019-05-10T07:30:03.230Z,13.24
2019-05-10T07:32:34.200Z,13.34
2019-05-10T07:35:06.042Z,13.39
2019-05-10T07:37:36.054Z,13.35
2019-05-10T07:40:09.287Z,13.40
2019-05-10T07:42:45.665Z,13.46
2019-05-10T07:45:11.157Z,13.41
2019-05-10T07:47:41.137Z,13.38
2019-05-10T07:50:11.596Z,13.46
2019-05-10T07:52:43.797Z,13.51
2019-05-10T07:55:17.949Z,13.53
2019-05-10T07:57:45.068Z,13.39
2019-05-10T08:00:15.726Z,13.38
2019-05-10T08:02:52.717Z,13.38
2019-05-10T08:05:18.450Z,13.39
2019-05-10T08:07:49.618Z,13.44
2019-05-10T08:10:21.414Z,13.47
2019-05-10T08:12:53.058Z,13.59
2019-05-10T08:15:24.694Z,13.74
2019-05-10T08:17:54.737Z,13.93
2019-05-10T08:20:38.222Z,13.94
2019-05-10T08:22:56.431Z,14.23
2019-05-10T08:25:28.961Z,14.61
2019-05-10T08:28:02.643Z,14.92
2019-05-10T08:30:42.498Z,14.86
2019-05-10T08:33:10.963Z,14.83
2019-05-10T08:35:45.565Z,14.59
2019-05-10T08:38:12.978Z,14.69
2019-05-10T08:40:43.189Z,14.78
2019-05-10T08:43:16.675Z,14.73
2019-05-10T08:45:49.292Z,14.91
2019-05-10T08:48:16.673Z,14.98
2019-05-10T08:50:54.270Z,15.08
2019-05-10T08:53:18.337Z,14.92
2019-05-10T08:55:48.671Z,14.94
2019-05-10T09:01:20.501Z,15.53
2019-05-10T09:03:38.011Z,15.67
2019-05-10T09:06:11.896Z,15.80
2019-05-10T09:08:39.745Z,15.85
2019-05-10T09:11:09.831Z,15.73
2019-05-10T09:13:42.451Z,15.62
2019-05-10T09:16:13.573Z,15.56
2019-05-10T09:18:50.250Z,15.43
2019-05-10T09:21:15.570Z,15.51
2019-05-10T09:23:53.013Z,15.90
2019-05-10T09:26:18.140Z,16.25
2019-05-10T09:28:55.490Z,16.45
2019-05-10T09:31:22.799Z,16.39
2019-05-10T09:33:54.108Z,16.33
2019-05-10T09:36:30.803Z,16.48
2019-05-10T09:38:54.867Z,16.68
2019-05-10T09:41:27.707Z,16.72
2019-05-10T09:43:56.665Z,16.72
2019-05-10T09:46:26.601Z,16.63
2019-05-10T09:49:05.218Z,16.43
2019-05-10T09:51:30.960Z,16.15
2019-05-10T09:54:01.017Z,15.98
2019-05-10T09:56:32.951Z,15.83
2019-05-10T09:59:02.825Z,15.75
2019-05-10T10:01:32.900Z,15.76
2019-05-10T10:04:02.945Z,15.81
2019-05-10T10:06:32.919Z,15.83
2019-05-10T10:09:07.258Z,15.73
2019-05-10T10:11:36.010Z,15.69
2019-05-10T10:14:07.535Z,15.72
2019-05-10T10:16:37.833Z,15.73
2019-05-10T10:19:07.853Z,15.73
2019-05-10T10:21:38.970Z,15.77
2019-05-10T10:24:15.694Z,15.80
2019-05-10T10:26:41.133Z,15.72
2019-05-10T10:29:11.147Z,15.56
2019-05-10T10:31:51.384Z,15.37
2019-05-10T10:34:12.811Z,15.30
2019-05-10T10:36:44.157Z,15.13
2019-05-10T10:39:16.882Z,14.95
2019-05-10T10:41:48.502Z,14.88
2019-05-10T10:44:18.225Z,14.83
2019-05-10T10:46:48.343Z,14.73
2019-05-10T10:49:23.210Z,14.73
2019-05-10T10:51:49.995Z,14.64
2019-05-10T10:54:22.391Z,14.56
2019-05-10T10:56:51.660Z,14.66
2019-05-10T10:59:21.593Z,14.66
2019-05-10T11:02:23.358Z,14.73
2019-05-10T11:04:23.326Z,14.74
2019-05-10T11:07:09.187Z,14.79
2019-05-10T11:09:25.073Z,14.68
2019-05-10T11:11:55.078Z,14.67
2019-05-10T11:14:25.378Z,14.69
2019-05-10T11:16:57.114Z,14.73
2019-05-10T11:19:26.977Z,14.75
2019-05-10T11:22:02.254Z,14.66
2019-05-10T11:24:30.789Z,14.63
2019-05-10T11:27:01.108Z,14.58
2019-05-10T11:29:31.351Z,14.34
2019-05-10T11:32:15.502Z,14.08
2019-05-10T11:34:37.319Z,13.95
2019-05-10T11:37:04.749Z,13.81
2019-05-10T11:39:42.142Z,13.69
2019-05-10T11:42:07.370Z,13.51
2019-05-10T11:44:41.529Z,13.63
2019-05-10T11:47:22.927Z,13.76
2019-05-10T11:49:40.972Z,13.97
2019-05-10T11:52:13.285Z,14.06
2019-05-10T11:54:42.782Z,14.13
2019-05-10T11:57:13.770Z,14.11
2019-05-10T11:59:45.001Z,14.13
2019-05-10T12:02:33.969Z,14.24
2019-05-10T12:04:48.411Z,14.61
2019-05-10T12:07:27.363Z,14.69
2019-05-10T12:09:53.285Z,14.53
2019-05-10T12:14:54.116Z,14.39
2019-05-10T12:17:24.206Z,14.43
2019-05-10T12:22:32.147Z,14.38
2019-05-10T12:25:18.707Z,14.55
2019-05-10T12:26:31.416Z,14.47
2019-05-10T12:26:49.168Z,14.43
2019-05-10T12:27:44.281Z,14.80
2019-05-10T12:30:03.535Z,15.66
2019-05-10T12:32:38.812Z,15.77
2019-05-10T12:35:07.149Z,16.00
2019-05-10T12:37:39.664Z,15.79
2019-05-10T12:40:14.880Z,15.73
2019-05-10T12:42:41.953Z,15.78
2019-05-10T12:45:13.399Z,15.52
2019-05-10T12:47:43.323Z,15.50
2019-05-10T12:50:15.053Z,15.44
2019-05-10T12:52:53.140Z,15.20
2019-05-10T12:55:16.741Z,15.25
2019-05-10T12:57:46.822Z,15.22
2019-05-10T13:00:17.298Z,15.27
2019-05-10T13:02:51.465Z,15.55
2019-05-10T13:05:19.078Z,15.71
2019-05-10T13:07:49.102Z,15.94
2019-05-10T13:10:20.902Z,16.14
2019-05-10T13:12:51.073Z,15.87
2019-05-10T13:15:24.860Z,16.07
2019-05-10T13:17:53.292Z,16.42
2019-05-10T13:20:23.667Z,16.62
2019-05-10T13:22:53.709Z,16.63
2019-05-10T13:25:23.715Z,16.77
2019-05-10T13:27:53.787Z,16.98
2019-05-10T13:30:27.998Z,17.09
2019-05-10T13:32:58.730Z,17.19
2019-05-10T13:35:27.183Z,17.19
2019-05-10T13:38:03.624Z,17.48
2019-05-10T13:40:29.600Z,17.56
2019-05-10T13:43:00.630Z,17.59
2019-05-10T13:45:31.850Z,17.47
2019-05-10T13:48:02.450Z,17.35
2019-05-10T13:50:32.466Z,17.40
2019-05-10T13:53:02.523Z,17.35
2019-05-10T13:55:33.182Z,17.04
2019-05-10T13:58:03.191Z,17.19
2019-05-10T14:00:35.636Z,17.30
2019-05-10T14:03:11.920Z,17.30
2019-05-10T14:05:40.204Z,16.98
2019-05-10T14:08:11.481Z,16.93
2019-05-10T14:10:41.684Z,16.92
2019-05-10T14:13:11.658Z,16.99
2019-05-10T14:15:42.279Z,16.94
2019-05-10T14:18:12.242Z,16.86
2019-05-10T14:20:42.903Z,16.87
2019-05-10T14:23:17.574Z,17.12
2019-05-10T14:25:46.354Z,17.56
2019-05-10T14:28:18.957Z,17.89
2019-05-10T14:30:57.280Z,18.28
2019-05-10T14:33:21.917Z,18.53
2019-05-10T14:35:55.153Z,18.77
2019-05-10T14:38:23.591Z,18.57
2019-05-10T14:40:53.565Z,18.44
2019-05-10T14:43:23.574Z,18.06
2019-05-10T14:45:53.550Z,17.88
2019-05-10T14:48:28.841Z,17.84
2019-05-10T14:50:55.217Z,17.98
2019-05-10T14:53:27.065Z,18.17
2019-05-10T14:55:57.537Z,18.09
2019-05-10T14:58:27.687Z,18.19
2019-05-10T15:00:57.810Z,18.33
2019-05-10T15:03:27.794Z,18.24
2019-05-10T15:06:01.487Z,18.08
2019-05-10T15:08:29.639Z,17.72
2019-05-10T15:10:59.652Z,17.70
2019-05-10T15:13:29.731Z,17.59
2019-05-10T15:15:59.800Z,17.46
2019-05-10T15:18:29.781Z,17.53
2019-05-10T15:20:59.787Z,17.70
2019-05-10T15:23:29.842Z,17.73
2019-05-10T15:26:10.567Z,18.06
2019-05-10T15:28:34.318Z,18.17
2019-05-10T15:31:03.288Z,17.94
2019-05-10T15:33:33.366Z,17.85
2019-05-10T15:36:03.423Z,17.80
2019-05-10T15:38:33.440Z,17.81
2019-05-10T15:41:04.559Z,17.73
2019-05-10T15:43:34.634Z,17.66
2019-05-10T15:46:04.978Z,17.48
2019-05-10T15:48:36.562Z,17.26
2019-05-10T15:51:11.102Z,16.98
2019-05-10T15:53:38.409Z,16.58
2019-05-10T15:56:08.494Z,15.85
2019-05-10T15:58:42.478Z,15.71
2019-05-10T16:01:14.255Z,16.10
2019-05-10T16:03:45.454Z,16.70
2019-05-10T16:06:15.514Z,16.66
2019-05-10T16:08:45.539Z,16.59
2019-05-10T16:11:18.760Z,16.64
2019-05-10T16:13:47.711Z,16.76
2019-05-10T16:16:17.821Z,16.60
2019-05-10T16:18:47.863Z,16.42
2019-05-10T16:21:17.879Z,16.33
2019-05-10T16:23:48.363Z,16.29
2019-05-10T16:26:23.066Z,16.18
2019-05-10T16:28:53.237Z,15.96
2019-05-10T16:31:21.837Z,15.93
2019-05-10T16:33:53.706Z,16.08
2019-05-10T16:36:28.315Z,16.18
2019-05-10T16:38:55.152Z,16.31
2019-05-10T16:41:26.866Z,16.34
2019-05-10T16:44:00.120Z,16.44
2019-05-10T16:46:29.532Z,16.49
2019-05-10T16:48:59.552Z,16.57
2019-05-10T16:51:29.601Z,16.64
2019-05-10T16:54:02.103Z,16.69
2019-05-10T16:56:32.388Z,16.68
2019-05-10T16:59:02.434Z,16.71
2019-05-10T17:01:33.715Z,16.73
2019-05-10T17:04:04.100Z,16.69
2019-05-10T17:06:35.458Z,16.69
2019-05-10T17:09:17.562Z,16.71
2019-05-10T17:11:41.541Z,16.85
2019-05-10T17:14:12.636Z,16.85
2019-05-10T17:16:43.213Z,16.88
2019-05-10T17:19:15.622Z,16.88
2019-05-10T17:21:47.366Z,16.93
2019-05-10T17:24:24.077Z,16.92
2019-05-10T17:26:54.429Z,16.90
2019-05-10T17:29:24.638Z,16.85
2019-05-10T17:31:54.686Z,16.80
2019-05-10T17:34:29.530Z,16.75
2019-05-10T17:36:59.783Z,16.70
2019-05-10T17:39:34.217Z,16.66
2019-05-10T17:42:05.026Z,16.64
2019-05-10T17:44:35.930Z,16.68
2019-05-10T17:47:07.926Z,16.72
2019-05-10T17:49:39.030Z,16.65
2019-05-10T17:52:10.949Z,16.61
2019-05-10T17:54:42.458Z,16.57
2019-05-10T17:57:16.697Z,16.44
2019-05-10T17:59:46.908Z,16.30
2019-05-10T18:02:18.280Z,16.17
2019-05-10T18:04:48.291Z,16.06
2019-05-10T18:07:18.226Z,15.94
2019-05-10T18:09:49.955Z,15.77
2019-05-10T18:12:24.130Z,15.69
2019-05-10T18:14:55.925Z,15.59
2019-05-10T18:17:27.438Z,15.50
2019-05-10T18:20:02.223Z,15.32
2019-05-10T18:22:29.786Z,15.09
2019-05-10T18:25:00.287Z,14.89
2019-05-10T18:27:30.921Z,14.76
2019-05-10T18:30:02.197Z,14.65
2019-05-10T18:32:35.840Z,14.46
2019-05-10T18:35:13.193Z,14.40
2019-05-10T18:37:37.249Z,14.33
2019-05-10T18:40:09.059Z,14.30
2019-05-10T18:42:39.632Z,14.26
2019-05-10T18:45:11.103Z,14.19
2019-05-10T18:47:41.226Z,14.17
2019-05-10T18:50:12.076Z,14.11
2019-05-10T18:52:42.814Z,14.02
2019-05-10T18:55:13.692Z,13.89
2019-05-10T18:57:50.386Z,13.81
2019-05-10T19:00:23.240Z,13.79
2019-05-10T19:02:55.297Z,13.79
2019-05-10T19:05:25.178Z,13.79
2019-05-10T19:08:04.524Z,13.75
2019-05-10T19:10:28.128Z,13.75
2019-05-10T19:13:01.234Z,13.73
2019-05-10T19:15:29.914Z,13.70
2019-05-10T19:17:59.962Z,13.65
2019-05-10T19:20:30.431Z,13.60
2019-05-10T19:23:00.445Z,13.54
2019-05-10T19:25:31.268Z,13.43
2019-05-10T19:28:01.845Z,13.46
2019-05-10T19:30:31.964Z,13.43
2019-05-10T19:33:02.154Z,13.38
2019-05-10T19:35:35.664Z,13.40
2019-05-10T19:38:04.830Z,13.35
2019-05-10T19:40:35.503Z,13.29
2019-05-10T19:43:06.610Z,13.23
2019-05-10T19:45:36.692Z,13.21
2019-05-10T19:48:07.334Z,13.16
2019-05-10T19:50:38.320Z,13.11
2019-05-10T19:53:08.493Z,13.10
2019-05-10T19:55:38.743Z,13.08
2019-05-10T19:58:09.499Z,13.09
2019-05-10T20:00:39.703Z,13.07
2019-05-10T20:03:09.799Z,13.08
2019-05-10T20:05:39.812Z,13.08
2019-05-10T20:08:10.087Z,13.08
2019-05-10T20:10:40.222Z,13.10
2019-05-10T20:13:10.219Z,13.12
2019-05-10T20:15:40.899Z,13.14
2019-05-10T20:18:11.488Z,13.16
2019-05-10T20:20:42.853Z,13.17
2019-05-10T20:23:13.092Z,13.18
2019-05-10T20:25:43.876Z,13.20
2019-05-10T20:28:14.018Z,13.22
2019-05-10T20:30:44.240Z,13.22
2019-05-10T20:33:14.901Z,13.21
2019-05-10T20:35:45.220Z,13.20
2019-05-10T20:38:15.902Z,13.22
2019-05-10T20:40:46.847Z,13.26
2019-05-10T20:43:17.960Z,13.27
2019-05-10T20:45:48.850Z,13.31
2019-05-10T20:48:19.027Z,13.31
2019-05-10T20:50:49.818Z,13.31
2019-05-10T20:53:19.992Z,13.33
2019-05-10T20:55:50.018Z,13.32
2019-05-10T20:58:20.505Z,13.33
2019-05-10T21:00:51.081Z,13.34
2019-05-10T21:03:21.499Z,13.33
2019-05-10T21:05:51.633Z,13.31
2019-05-10T21:08:22.116Z,13.32
2019-05-10T21:10:52.125Z,13.30
2019-05-10T21:13:21.957Z,13.27
2019-05-10T21:15:52.742Z,13.24
2019-05-10T21:18:22.951Z,13.21
2019-05-10T21:20:53.532Z,13.16
2019-05-10T21:23:24.117Z,13.16
2019-05-10T21:25:54.119Z,13.10
2019-05-10T21:28:26.114Z,13.07
2019-05-10T21:30:57.045Z,13.10
2019-05-10T21:33:27.232Z,13.13
2019-05-10T21:35:57.339Z,13.11
2019-05-10T21:38:33.081Z,13.06
2019-05-10T21:40:59.710Z,13.11
2019-05-10T21:43:29.865Z,13.10
2019-05-10T21:46:00.306Z,13.09
2019-05-10T21:48:31.380Z,13.18
2019-05-10T21:51:01.453Z,13.20
2019-05-10T21:53:31.697Z,13.17
2019-05-10T21:56:01.633Z,13.15
2019-05-10T21:58:32.372Z,13.10
2019-05-10T22:01:02.782Z,13.09
2019-05-10T22:03:34.310Z,13.08
2019-05-10T22:06:06.170Z,13.06
2019-05-10T22:08:49.043Z,13.06
2019-05-10T22:11:09.783Z,13.05
2019-05-10T22:13:40.125Z,12.96
2019-05-10T22:16:10.302Z,12.95
2019-05-10T22:18:40.289Z,12.93
2019-05-10T22:21:10.829Z,12.93
2019-05-10T22:23:40.909Z,12.88
2019-05-10T22:26:11.012Z,12.87
2019-05-10T22:28:41.254Z,12.85
2019-05-10T22:31:11.407Z,12.86
2019-05-10T22:33:41.462Z,12.87
2019-05-10T22:36:11.476Z,12.85
2019-05-10T22:38:41.597Z,12.83
2019-05-10T22:41:11.650Z,12.80
2019-05-10T22:43:42.972Z,12.80
2019-05-10T22:46:14.052Z,12.82
2019-05-10T22:48:44.411Z,12.83
2019-05-10T22:51:14.420Z,12.83
2019-05-10T22:53:53.262Z,12.81
2019-05-10T22:56:16.425Z,12.80
2019-05-10T22:58:46.865Z,12.81
2019-05-10T23:01:17.734Z,12.81
2019-05-10T23:03:47.946Z,12.81
2019-05-10T23:06:18.726Z,12.82
2019-05-10T23:08:48.884Z,12.84
2019-05-10T23:11:19.137Z,12.83
2019-05-10T23:13:49.635Z,12.82
2019-05-10T23:16:20.176Z,12.82
2019-05-10T23:18:50.976Z,12.82
2019-05-10T23:21:21.742Z,12.80
2019-05-10T23:23:51.945Z,12.76
2019-05-10T23:26:21.925Z,12.72
2019-05-10T23:28:52.000Z,12.74
2019-05-10T23:31:22.073Z,12.75
2019-05-10T23:33:52.081Z,12.76
2019-05-10T23:36:22.139Z,12.73
2019-05-10T23:38:52.424Z,12.74
2019-05-10T23:41:22.565Z,12.74
2019-05-10T23:43:52.572Z,12.72
2019-05-10T23:46:22.629Z,12.71
2019-05-10T23:48:52.633Z,12.70
2019-05-10T23:51:22.751Z,12.69
2019-05-10T23:53:52.764Z,12.65
2019-05-10T23:56:22.742Z,12.60
2019-05-10T23:58:52.761Z,12.49
